Time;durP1;ratioP1;P1;durP2;ratioP2;P2;SDS_P1;SDS_P2;PMS_P1;PMS_P2;Temp;Humidity;BMP_temperature;BMP_pressure;BME280_temperature;BME280_humidity;BME280_pressure;Samples;Min_cycle;Max_cycle;Signal;HPM_P1;HPM_P2
2022/11/15 00:02:25;;;;;;;20.00;12.40;;;;;;;;;;5081115;28;20024;-58
2022/11/15 00:04:50;;;;;;;24.30;12.65;;;;;;;;;;5077448;28;20074;-57
2022/11/15 00:07:15;;;;;;;19.83;12.10;;;;;;;;;;5084711;28;20059;-57
2022/11/15 00:09:40;;;;;;;18.98;11.63;;;;;;;;;;5082742;28;20028;-58
2022/11/15 00:12:06;;;;;;;19.77;11.85;;;;;;;;;;5088982;28;20431;-57
2022/11/15 00:14:31;;;;;;;17.23;10.63;;;;;;;;;;5083662;28;20019;-57
2022/11/15 00:16:56;;;;;;;19.70;12.30;;;;;;;;;;5078747;28;20036;-57
2022/11/15 00:19:22;;;;;;;17.90;11.63;;;;;;;;;;5079719;28;20343;-58
2022/11/15 00:21:47;;;;;;;18.40;11.45;;;;;;;;;;5085916;28;20462;-58
2022/11/15 00:24:12;;;;;;;15.57;10.50;;;;;;;;;;5094777;28;20512;-57
2022/11/15 00:26:37;;;;;;;15.80;10.68;;;;;;;;;;5080200;28;20467;-57
2022/11/15 00:29:02;;;;;;;21.85;11.15;;;;;;;;;;5078180;28;20467;-58
2022/11/15 00:31:28;;;;;;;16.15;10.65;;;;;;;;;;5087076;28;20422;-57
2022/11/15 00:33:53;;;;;;;17.63;11.02;;;;;;;;;;5082994;28;20039;-58
2022/11/15 00:36:18;;;;;;;15.07;10.27;;;;;;;;;;5071922;28;20020;-58
2022/11/15 00:38:43;;;;;;;20.98;11.90;;;;;;;;;;5087797;28;20047;-58
2022/11/15 00:41:09;;;;;;;15.27;10.60;;;;;;;;;;5086314;28;20363;-57
2022/11/15 00:43:34;;;;;;;16.10;10.73;;;;;;;;;;5081675;28;20537;-57
2022/11/15 00:46:00;;;;;;;16.63;10.60;;;;;;;;;;5075340;28;20031;-57
2022/11/15 00:48:25;;;;;;;17.33;11.05;;;;;;;;;;5088996;28;20480;-57
2022/11/15 00:50:50;;;;;;;17.00;11.13;;;;;;;;;;5080013;28;20511;-57
2022/11/15 00:53:16;;;;;;;15.50;10.90;;;;;;;;;;5074941;28;20336;-57
2022/11/15 00:55:41;;;;;;;16.90;10.32;;;;;;;;;;5079237;28;20390;-57
2022/11/15 00:58:06;;;;;;;15.60;9.90;;;;;;;;;;5083803;28;20040;-57
2022/11/15 01:00:31;;;;;;;19.05;11.00;;;;;;;;;;5084213;28;20017;-58
2022/11/15 01:02:57;;;;;;;15.27;10.30;;;;;;;;;;5084949;28;20259;-57
2022/11/15 01:05:22;;;;;;;15.88;10.95;;;;;;;;;;5074432;28;20036;-57
2022/11/15 01:07:47;;;;;;;15.55;9.95;;;;;;;;;;5077016;28;20039;-57
2022/11/15 01:10:12;;;;;;;18.63;11.02;;;;;;;;;;5076248;28;20016;-58
2022/11/15 01:12:37;;;;;;;17.27;10.60;;;;;;;;;;5086079;28;20469;-57
2022/11/15 01:15:03;;;;;;;15.13;9.90;;;;;;;;;;5085046;28;20490;-57
2022/11/15 01:17:29;;;;;;;14.77;9.85;;;;;;;;;;5089308;28;20029;-57
2022/11/15 01:19:54;;;;;;;15.43;9.50;;;;;;;;;;5076536;28;20024;-57
2022/11/15 01:22:20;;;;;;;19.80;10.55;;;;;;;;;;5076016;28;20025;-57
2022/11/15 01:24:45;;;;;;;14.68;9.32;;;;;;;;;;5078860;28;20015;-57
2022/11/15 01:27:10;;;;;;;14.18;9.50;;;;;;;;;;5075828;28;20406;-58
2022/11/15 01:29:35;;;;;;;15.75;9.23;;;;;;;;;;5075293;28;20035;-58
2022/11/15 01:32:01;;;;;;;18.27;10.13;;;;;;;;;;5074286;28;20497;-57
2022/11/15 01:34:26;;;;;;;16.52;9.50;;;;;;;;;;5074701;28;20158;-57
2022/11/15 01:36:51;;;;;;;15.57;9.52;;;;;;;;;;5087633;28;20016;-57
2022/11/15 01:39:16;;;;;;;20.08;9.77;;;;;;;;;;5074644;28;20028;-57
2022/11/15 01:41:42;;;;;;;12.73;9.52;;;;;;;;;;5072123;28;20024;-58
2022/11/15 01:44:25;;;;;;;13.50;9.38;;;;;;;;;;5084461;28;20048;-57
2022/11/15 01:46:50;;;;;;;16.13;9.65;;;;;;;;;;5075913;28;20048;-58
2022/11/15 01:49:17;;;;;;;15.60;9.35;;;;;;;;;;5073016;28;20478;-58
2022/11/15 01:51:42;;;;;;;17.70;11.23;;;;;;;;;;5089794;28;20023;-57
2022/11/15 01:54:08;;;;;;;16.58;10.85;;;;;;;;;;5082688;28;20080;-57
2022/11/15 01:56:36;;;;;;;18.25;12.23;;;;;;;;;;5081935;28;20412;-57
2022/11/15 01:59:02;;;;;;;15.60;11.25;;;;;;;;;;5084337;28;20084;-57
2022/11/15 02:01:27;;;;;;;15.88;11.68;;;;;;;;;;5081372;28;20546;-58
2022/11/15 02:03:59;;;;;;;15.15;11.25;;;;;;;;;;5128974;27;20027;-58
2022/11/15 02:06:25;;;;;;;13.43;11.40;;;;;;;;;;5076177;28;20063;-57
2022/11/15 02:08:50;;;;;;;17.70;11.45;;;;;;;;;;5083363;28;20027;-57
2022/11/15 02:11:15;;;;;;;16.33;11.68;;;;;;;;;;5084406;28;20089;-57
2022/11/15 02:13:40;;;;;;;18.25;11.50;;;;;;;;;;5084576;28;20635;-57
2022/11/15 02:16:06;;;;;;;13.82;10.65;;;;;;;;;;5085372;28;20012;-57
2022/11/15 02:18:32;;;;;;;17.75;10.90;;;;;;;;;;5081361;28;20031;-57
2022/11/15 02:21:10;;;;;;;15.90;11.38;;;;;;;;;;5081375;28;20027;-58
2022/11/15 02:24:04;;;;;;;17.67;10.05;;;;;;;;;;5076345;28;20032;-58
2022/11/15 02:26:48;;;;;;;19.45;10.95;;;;;;;;;;5080195;28;20123;-57
2022/11/15 02:29:31;;;;;;;15.10;10.05;;;;;;;;;;5078745;28;20024;-57
2022/11/15 02:32:02;;;;;;;14.45;9.63;;;;;;;;;;5090479;28;20024;-57
2022/11/15 02:34:29;;;;;;;14.75;10.10;;;;;;;;;;5083756;28;20431;-58
2022/11/15 02:37:11;;;;;;;19.33;10.18;;;;;;;;;;5082580;28;20022;-57
2022/11/15 02:39:46;;;;;;;15.35;9.30;;;;;;;;;;5078059;28;20501;-57
2022/11/15 02:43:56;;;;;;;16.10;9.77;;;;;;;;;;5083067;28;20024;-57
2022/11/15 02:44:58;;;;;;;14.10;9.55;;;;;;;;;;5087317;28;20639;-57
2022/11/15 02:47:23;;;;;;;15.55;9.10;;;;;;;;;;5078961;28;20020;-57
2022/11/15 02:49:56;;;;;;;13.65;9.45;;;;;;;;;;5073163;28;20046;-57
2022/11/15 02:52:23;;;;;;;14.55;9.38;;;;;;;;;;5072372;28;20058;-58
2022/11/15 02:54:55;;;;;;;20.05;10.20;;;;;;;;;;5075314;28;20019;-58
2022/11/15 02:57:21;;;;;;;13.40;8.82;;;;;;;;;;5082662;28;20040;-58
2022/11/15 02:59:46;;;;;;;13.88;8.93;;;;;;;;;;5078159;28;20011;-57
2022/11/15 03:02:28;;;;;;;11.45;8.23;;;;;;;;;;5083873;28;20069;-57
2022/11/15 03:04:53;;;;;;;14.65;9.23;;;;;;;;;;5084963;28;20026;-59
2022/11/15 03:07:20;;;;;;;12.02;8.73;;;;;;;;;;5080632;28;20493;-57
2022/11/15 03:09:54;;;;;;;11.75;7.88;;;;;;;;;;5081337;27;20107;-57
2022/11/15 03:12:38;;;;;;;9.32;7.20;;;;;;;;;;5077727;28;20454;-57
2022/11/15 03:15:24;;;;;;;14.50;8.35;;;;;;;;;;5087915;28;20023;-57
2022/11/15 03:17:52;;;;;;;9.65;7.10;;;;;;;;;;5080146;28;20040;-57
2022/11/15 03:20:18;;;;;;;10.32;7.07;;;;;;;;;;5114629;27;20024;-57
2022/11/15 03:22:43;;;;;;;11.75;7.50;;;;;;;;;;5081151;28;20034;-57
2022/11/15 03:25:09;;;;;;;12.13;7.20;;;;;;;;;;5072074;28;20386;-58
2022/11/15 03:27:36;;;;;;;9.60;7.00;;;;;;;;;;5083228;28;20024;-58
2022/11/15 03:30:02;;;;;;;12.95;7.70;;;;;;;;;;5096521;28;20406;-57
2022/11/15 03:32:28;;;;;;;11.30;7.05;;;;;;;;;;5093364;28;20028;-57
2022/11/15 03:34:54;;;;;;;10.35;6.68;;;;;;;;;;5085751;28;20047;-57
2022/11/15 03:37:20;;;;;;;8.55;6.05;;;;;;;;;;5079782;28;20017;-57
2022/11/15 03:39:46;;;;;;;10.10;6.40;;;;;;;;;;5079952;28;20035;-57
2022/11/15 03:42:11;;;;;;;9.80;6.35;;;;;;;;;;5090445;28;20023;-57
2022/11/15 03:44:39;;;;;;;8.23;6.47;;;;;;;;;;5081739;28;20032;-57
2022/11/15 03:47:08;;;;;;;8.23;6.20;;;;;;;;;;5082243;28;20485;-57
2022/11/15 03:49:34;;;;;;;12.73;6.68;;;;;;;;;;5087253;28;20028;-57
2022/11/15 03:51:59;;;;;;;10.13;5.88;;;;;;;;;;5093649;28;20045;-57
2022/11/15 03:54:24;;;;;;;9.30;6.43;;;;;;;;;;5084449;28;20024;-57
2022/11/15 03:56:49;;;;;;;13.48;6.60;;;;;;;;;;5085176;28;20126;-57
2022/11/15 03:59:15;;;;;;;10.15;6.70;;;;;;;;;;5080390;28;20524;-58
2022/11/15 04:01:40;;;;;;;9.05;6.22;;;;;;;;;;5110663;27;20056;-57
2022/11/15 04:04:05;;;;;;;10.00;6.50;;;;;;;;;;5082556;28;20506;-58
2022/11/15 04:06:30;;;;;;;10.32;6.47;;;;;;;;;;5074715;28;20486;-57
2022/11/15 04:08:55;;;;;;;9.43;6.35;;;;;;;;;;5083839;28;20461;-57
2022/11/15 04:11:21;;;;;;;11.70;7.20;;;;;;;;;;5083629;28;20351;-57
2022/11/15 04:13:46;;;;;;;13.20;8.43;;;;;;;;;;5074014;28;20428;-57
2022/11/15 04:16:12;;;;;;;12.23;6.88;;;;;;;;;;5076112;28;20457;-57
2022/11/15 04:18:37;;;;;;;11.07;6.35;;;;;;;;;;5081934;28;20052;-57
2022/11/15 04:26:30;;;;;;;10.75;6.95;;;;;;;;;;5085258;28;20024;-57
2022/11/15 04:31:39;;;;;;;12.02;7.35;;;;;;;;;;5086888;28;20255;-57
2022/11/15 04:34:04;;;;;;;12.35;7.20;;;;;;;;;;5080633;28;20451;-57
2022/11/15 04:39:14;;;;;;;11.43;7.07;;;;;;;;;;5095953;28;20039;-57
2022/11/15 04:41:39;;;;;;;8.93;6.72;;;;;;;;;;5083915;28;20102;-57
2022/11/15 04:44:04;;;;;;;8.65;6.97;;;;;;;;;;5092271;28;20063;-57
2022/11/15 04:46:29;;;;;;;9.88;7.05;;;;;;;;;;5081694;28;20016;-57
2022/11/15 04:48:55;;;;;;;10.38;7.05;;;;;;;;;;5079436;28;20535;-57
2022/11/15 04:51:20;;;;;;;9.95;6.38;;;;;;;;;;5073641;28;20039;-57
2022/11/15 04:53:45;;;;;;;8.63;6.72;;;;;;;;;;5083776;28;20027;-58
2022/11/15 04:56:10;;;;;;;10.13;6.22;;;;;;;;;;5085942;28;20553;-57
2022/11/15 04:58:36;;;;;;;10.13;6.70;;;;;;;;;;5077155;28;20711;-57
2022/11/15 05:01:11;;;;;;;10.35;7.13;;;;;;;;;;5086966;28;20423;-57
2022/11/15 05:06:20;;;;;;;8.95;6.32;;;;;;;;;;5077659;28;20098;-57
2022/11/15 05:08:46;;;;;;;8.30;6.10;;;;;;;;;;5077420;28;20020;-57
2022/11/15 05:11:11;;;;;;;8.90;5.95;;;;;;;;;;5083429;28;20031;-58
2022/11/15 05:13:36;;;;;;;10.50;6.18;;;;;;;;;;5085975;28;20033;-57
2022/11/15 05:16:01;;;;;;;9.43;5.65;;;;;;;;;;5078423;28;20063;-57
2022/11/15 05:18:27;;;;;;;9.82;5.72;;;;;;;;;;5075982;28;20044;-57
2022/11/15 05:20:52;;;;;;;8.73;5.68;;;;;;;;;;5078990;28;20075;-58
2022/11/15 05:23:17;;;;;;;7.68;5.72;;;;;;;;;;5073717;28;20078;-57
2022/11/15 05:25:42;;;;;;;7.18;5.25;;;;;;;;;;5071176;28;20073;-57
2022/11/15 05:28:08;;;;;;;9.05;5.18;;;;;;;;;;5077118;28;20032;-57
2022/11/15 05:30:33;;;;;;;8.05;5.18;;;;;;;;;;5076268;28;20024;-57
2022/11/15 05:32:58;;;;;;;11.50;5.07;;;;;;;;;;5072190;28;20078;-57
2022/11/15 05:35:31;;;;;;;8.30;5.00;;;;;;;;;;5080901;28;20059;-57
2022/11/15 05:37:57;;;;;;;12.45;4.85;;;;;;;;;;5086315;28;20524;-57
2022/11/15 05:40:22;;;;;;;6.47;4.45;;;;;;;;;;5080478;28;20273;-57
2022/11/15 05:42:47;;;;;;;6.47;4.50;;;;;;;;;;5088200;28;20054;-57
2022/11/15 05:45:12;;;;;;;8.05;4.65;;;;;;;;;;5088358;28;20013;-58
2022/11/15 05:47:37;;;;;;;6.35;4.47;;;;;;;;;;5111630;27;20099;-58
2022/11/15 05:50:03;;;;;;;7.57;4.70;;;;;;;;;;5073777;28;20060;-58
2022/11/15 05:52:29;;;;;;;6.78;3.78;;;;;;;;;;5083021;28;20497;-59
2022/11/15 05:54:57;;;;;;;7.95;4.30;;;;;;;;;;5081477;28;20008;-59
2022/11/15 05:57:22;;;;;;;7.40;4.03;;;;;;;;;;5109035;27;20120;-56
2022/11/15 05:59:47;;;;;;;6.45;4.40;;;;;;;;;;5081411;28;20098;-58
2022/11/15 06:02:13;;;;;;;6.75;4.80;;;;;;;;;;5069629;28;20047;-58
2022/11/15 06:04:38;;;;;;;6.90;4.00;;;;;;;;;;5078023;28;20019;-58
2022/11/15 06:07:03;;;;;;;5.90;4.38;;;;;;;;;;5077184;28;20347;-58
2022/11/15 06:09:28;;;;;;;6.20;4.15;;;;;;;;;;5083794;28;20032;-57
2022/11/15 06:11:54;;;;;;;5.90;4.40;;;;;;;;;;5084441;28;20047;-58
2022/11/15 06:14:19;;;;;;;6.20;4.70;;;;;;;;;;5085015;28;20484;-58
2022/11/15 06:16:44;;;;;;;6.78;4.32;;;;;;;;;;5082116;28;20408;-58
2022/11/15 06:19:09;;;;;;;6.60;4.65;;;;;;;;;;5075656;28;20166;-58
2022/11/15 06:21:34;;;;;;;6.68;4.70;;;;;;;;;;5072028;28;20020;-58
2022/11/15 06:24:00;;;;;;;7.20;4.68;;;;;;;;;;5071022;28;20028;-58
2022/11/15 06:26:25;;;;;;;7.40;5.00;;;;;;;;;;5073543;28;20135;-57
2022/11/15 06:28:50;;;;;;;8.73;4.07;;;;;;;;;;5075603;28;20126;-57
2022/11/15 06:31:15;;;;;;;6.35;4.68;;;;;;;;;;5081000;28;20119;-57
2022/11/15 06:33:41;;;;;;;9.73;4.85;;;;;;;;;;5083617;28;20027;-57
2022/11/15 06:36:07;;;;;;;6.18;4.70;;;;;;;;;;5074504;28;20016;-57
2022/11/15 06:38:33;;;;;;;7.13;4.93;;;;;;;;;;5088837;28;20027;-57
2022/11/15 06:41:05;;;;;;;8.02;4.75;;;;;;;;;;5082703;28;20028;-57
2022/11/15 06:43:30;;;;;;;9.15;4.85;;;;;;;;;;5084644;28;20431;-57
2022/11/15 06:45:56;;;;;;;7.97;4.78;;;;;;;;;;5091199;28;20494;-58
2022/11/15 06:48:21;;;;;;;7.28;5.13;;;;;;;;;;5115589;27;20290;-57
2022/11/15 06:50:51;;;;;;;8.90;5.28;;;;;;;;;;5090950;28;20358;-57
2022/11/15 06:53:16;;;;;;;8.93;5.05;;;;;;;;;;5094760;28;20024;-57
2022/11/15 06:55:42;;;;;;;7.95;4.53;;;;;;;;;;5083952;28;20385;-58
2022/11/15 06:58:07;;;;;;;12.13;6.68;;;;;;;;;;5076688;28;20080;-58
2022/11/15 07:00:32;;;;;;;12.70;6.78;;;;;;;;;;5095072;28;20019;-58
2022/11/15 07:02:59;;;;;;;12.65;7.85;;;;;;;;;;5086973;28;20032;-58
2022/11/15 07:05:24;;;;;;;12.85;8.50;;;;;;;;;;5089551;28;20523;-58
2022/11/15 07:07:53;;;;;;;8.73;6.40;;;;;;;;;;5075493;28;20024;-58
2022/11/15 07:10:18;;;;;;;10.88;7.57;;;;;;;;;;5084772;28;20181;-58
2022/11/15 07:12:46;;;;;;;8.93;7.07;;;;;;;;;;5091217;28;20569;-58
2022/11/15 07:15:11;;;;;;;11.32;6.47;;;;;;;;;;5084845;28;20031;-58
2022/11/15 07:17:37;;;;;;;12.77;6.32;;;;;;;;;;5093960;28;20039;-58
2022/11/15 07:20:02;;;;;;;9.45;6.20;;;;;;;;;;5079329;28;20534;-58
2022/11/15 07:22:27;;;;;;;10.35;6.20;;;;;;;;;;5083369;28;20578;-58
2022/11/15 07:24:53;;;;;;;11.25;6.50;;;;;;;;;;5079941;28;20511;-58
2022/11/15 07:27:18;;;;;;;13.48;6.15;;;;;;;;;;5082310;28;20025;-58
2022/11/15 07:29:43;;;;;;;8.25;6.35;;;;;;;;;;5084697;28;20028;-58
2022/11/15 07:32:09;;;;;;;9.68;5.65;;;;;;;;;;5088814;28;20070;-58
2022/11/15 07:34:34;;;;;;;9.52;5.75;;;;;;;;;;5079429;28;20165;-58
2022/11/15 07:36:59;;;;;;;9.25;6.03;;;;;;;;;;5082833;28;20035;-58
2022/11/15 07:39:24;;;;;;;8.90;5.88;;;;;;;;;;5085466;28;20017;-58
2022/11/15 07:42:52;;;;;;;8.95;5.78;;;;;;;;;;5085930;28;20016;-58
2022/11/15 07:44:35;;;;;;;15.50;5.57;;;;;;;;;;5094881;28;20036;-58
2022/11/15 07:47:00;;;;;;;12.00;5.55;;;;;;;;;;5082529;28;20021;-58
2022/11/15 07:49:25;;;;;;;7.45;5.47;;;;;;;;;;5075172;28;20346;-58
2022/11/15 07:51:51;;;;;;;10.07;5.30;;;;;;;;;;5086984;28;20016;-57
2022/11/15 07:54:16;;;;;;;9.23;5.50;;;;;;;;;;5074876;28;20027;-57
2022/11/15 07:56:41;;;;;;;7.25;5.00;;;;;;;;;;5091710;28;20035;-57
2022/11/15 07:59:07;;;;;;;8.82;4.90;;;;;;;;;;5077898;27;20028;-57
2022/11/15 08:01:32;;;;;;;7.43;4.72;;;;;;;;;;5091600;28;20017;-58
2022/11/15 08:03:57;;;;;;;7.55;4.75;;;;;;;;;;5077229;28;20074;-58
2022/11/15 08:06:22;;;;;;;6.43;4.60;;;;;;;;;;5073680;28;20044;-58
2022/11/15 08:08:48;;;;;;;8.88;4.97;;;;;;;;;;5095470;28;20492;-58
2022/11/15 08:11:13;;;;;;;6.68;5.20;;;;;;;;;;5074843;28;20107;-58
2022/11/15 08:13:38;;;;;;;7.60;4.70;;;;;;;;;;5079674;28;20594;-58
2022/11/15 08:16:05;;;;;;;6.15;4.40;;;;;;;;;;5082965;28;20120;-58
2022/11/15 08:18:30;;;;;;;7.75;4.78;;;;;;;;;;5080651;28;20047;-57
2022/11/15 08:20:58;;;;;;;7.63;5.22;;;;;;;;;;5079819;28;20520;-57
2022/11/15 08:23:23;;;;;;;6.10;4.85;;;;;;;;;;5078673;28;20051;-57
2022/11/15 08:25:48;;;;;;;8.65;4.80;;;;;;;;;;5092837;28;20406;-57
2022/11/15 08:28:15;;;;;;;7.80;4.55;;;;;;;;;;5081394;28;20024;-58
2022/11/15 08:30:41;;;;;;;5.88;4.45;;;;;;;;;;5084073;28;20026;-57
2022/11/15 08:33:09;;;;;;;7.75;4.43;;;;;;;;;;5084349;28;20025;-57
2022/11/15 08:35:34;;;;;;;6.20;4.18;;;;;;;;;;5116191;27;20020;-57
2022/11/15 08:37:59;;;;;;;6.90;4.30;;;;;;;;;;5115657;27;20109;-58
2022/11/15 08:40:26;;;;;;;9.52;4.18;;;;;;;;;;5076727;28;20111;-58
2022/11/15 08:42:51;;;;;;;5.90;4.22;;;;;;;;;;5075411;28;20089;-57
2022/11/15 08:45:17;;;;;;;5.50;3.80;;;;;;;;;;5076401;28;20054;-56
2022/11/15 08:47:42;;;;;;;5.63;3.42;;;;;;;;;;5071558;28;20024;-58
2022/11/15 08:50:07;;;;;;;5.82;3.30;;;;;;;;;;5083754;28;20424;-58
2022/11/15 08:52:33;;;;;;;4.10;3.08;;;;;;;;;;5086816;28;20024;-58
2022/11/15 08:54:58;;;;;;;5.13;3.40;;;;;;;;;;5088509;28;20081;-58
2022/11/15 08:57:23;;;;;;;6.00;3.50;;;;;;;;;;5090568;28;20025;-56
2022/11/15 08:59:49;;;;;;;5.28;3.45;;;;;;;;;;5094242;28;20020;-58
2022/11/15 09:02:14;;;;;;;5.68;3.50;;;;;;;;;;5074664;28;20077;-58
2022/11/15 09:04:42;;;;;;;6.93;3.40;;;;;;;;;;5074601;28;20011;-58
2022/11/15 09:07:08;;;;;;;5.13;3.13;;;;;;;;;;5071755;28;20525;-58
2022/11/15 09:09:34;;;;;;;6.63;3.40;;;;;;;;;;5084370;28;20052;-58
2022/11/15 09:11:59;;;;;;;5.43;3.50;;;;;;;;;;5083642;28;20028;-58
2022/11/15 09:14:24;;;;;;;5.55;3.80;;;;;;;;;;5075566;28;20020;-56
2022/11/15 09:16:49;;;;;;;6.05;3.35;;;;;;;;;;5083183;28;20035;-58
2022/11/15 09:19:15;;;;;;;4.45;2.90;;;;;;;;;;5087276;28;20028;-56
2022/11/15 09:21:40;;;;;;;4.95;3.17;;;;;;;;;;5074147;28;20035;-56
2022/11/15 09:24:05;;;;;;;5.82;3.15;;;;;;;;;;5079287;28;20047;-58
2022/11/15 09:26:30;;;;;;;8.70;3.10;;;;;;;;;;5075846;28;20430;-58
2022/11/15 09:28:55;;;;;;;6.00;2.85;;;;;;;;;;5077576;28;20535;-56
2022/11/15 09:31:21;;;;;;;4.82;2.90;;;;;;;;;;5080657;28;20127;-56
2022/11/15 09:33:46;;;;;;;5.65;2.70;;;;;;;;;;5093622;28;20028;-59
2022/11/15 09:36:12;;;;;;;5.65;2.63;;;;;;;;;;5074064;28;20020;-56
2022/11/15 09:38:37;;;;;;;5.68;2.80;;;;;;;;;;5082204;28;20036;-56
2022/11/15 09:41:11;;;;;;;4.38;2.58;;;;;;;;;;5080793;28;20020;-57
2022/11/15 09:43:46;;;;;;;6.28;3.05;;;;;;;;;;5076725;28;20073;-57
2022/11/15 09:46:30;;;;;;;6.57;2.60;;;;;;;;;;5081344;28;20028;-56
2022/11/15 09:48:56;;;;;;;3.97;2.40;;;;;;;;;;5070979;28;20032;-57
2022/11/15 09:51:26;;;;;;;7.70;2.97;;;;;;;;;;5079737;28;20027;-57
2022/11/15 09:54:02;;;;;;;6.70;2.70;;;;;;;;;;5079282;28;20055;-57
2022/11/15 09:56:32;;;;;;;5.93;2.50;;;;;;;;;;5113564;27;20035;-57
2022/11/15 09:59:00;;;;;;;5.60;2.42;;;;;;;;;;5074627;28;20039;-57
2022/11/15 10:01:31;;;;;;;5.00;2.60;;;;;;;;;;5091912;28;20023;-57
2022/11/15 10:03:57;;;;;;;4.60;2.60;;;;;;;;;;5080442;28;20024;-57
2022/11/15 10:06:23;;;;;;;4.30;2.50;;;;;;;;;;5077344;28;20380;-57
2022/11/15 10:08:48;;;;;;;5.40;2.33;;;;;;;;;;5081538;28;20030;-57
2022/11/15 10:11:35;;;;;;;3.58;2.30;;;;;;;;;;5079640;28;20032;-56
2022/11/15 10:14:01;;;;;;;3.53;2.10;;;;;;;;;;5080111;28;20064;-58
2022/11/15 10:16:29;;;;;;;5.90;2.50;;;;;;;;;;5084178;28;20040;-56
2022/11/15 10:18:54;;;;;;;6.25;2.38;;;;;;;;;;5091907;28;20042;-56
2022/11/15 10:21:21;;;;;;;4.82;2.53;;;;;;;;;;5084834;28;20024;-60
2022/11/15 10:23:46;;;;;;;4.93;2.53;;;;;;;;;;5092641;28;20023;-57
2022/11/15 10:26:12;;;;;;;4.82;3.03;;;;;;;;;;5077117;28;20112;-58
2022/11/15 10:28:37;;;;;;;6.32;3.03;;;;;;;;;;5118908;27;20027;-58
2022/11/15 10:31:04;;;;;;;7.38;2.80;;;;;;;;;;5080886;28;20023;-58
2022/11/15 10:33:29;;;;;;;4.85;2.53;;;;;;;;;;5090388;28;20054;-57
2022/11/15 10:36:13;;;;;;;4.68;2.55;;;;;;;;;;5089083;28;20016;-56
2022/11/15 10:38:50;;;;;;;7.63;2.67;;;;;;;;;;5084767;28;20096;-58
2022/11/15 10:41:16;;;;;;;5.65;2.50;;;;;;;;;;5079825;28;20032;-57
2022/11/15 10:43:41;;;;;;;3.95;2.45;;;;;;;;;;5073339;28;20103;-57
2022/11/15 10:46:22;;;;;;;5.65;2.80;;;;;;;;;;5079396;28;20107;-57
2022/11/15 10:48:48;;;;;;;4.22;2.60;;;;;;;;;;5085401;28;20124;-57
2022/11/15 10:51:27;;;;;;;6.18;2.92;;;;;;;;;;5083096;28;20509;-57
2022/11/15 10:53:53;;;;;;;6.55;3.03;;;;;;;;;;5080516;28;20025;-57
2022/11/15 10:56:18;;;;;;;5.25;2.75;;;;;;;;;;5090788;28;20459;-57
2022/11/15 10:58:44;;;;;;;5.82;3.15;;;;;;;;;;5078509;28;20168;-57
2022/11/15 11:01:17;;;;;;;5.28;3.00;;;;;;;;;;5081504;28;20016;-55
2022/11/15 11:03:42;;;;;;;7.25;2.90;;;;;;;;;;5084364;28;20027;-57
2022/11/15 11:06:12;;;;;;;5.80;3.15;;;;;;;;;;5068644;28;20101;-56
2022/11/15 11:08:38;;;;;;;6.25;3.20;;;;;;;;;;5078466;28;20043;-57
2022/11/15 11:11:03;;;;;;;5.43;2.78;;;;;;;;;;5071508;28;20023;-57
2022/11/15 11:13:29;;;;;;;4.90;2.85;;;;;;;;;;5085305;28;20063;-57
2022/11/15 11:15:56;;;;;;;4.90;2.63;;;;;;;;;;5084047;28;20058;-57
2022/11/15 11:18:35;;;;;;;5.35;3.10;;;;;;;;;;5112158;27;20027;-57
2022/11/15 11:21:03;;;;;;;8.48;2.95;;;;;;;;;;5072993;28;20028;-57
2022/11/15 11:23:43;;;;;;;4.10;2.92;;;;;;;;;;5116754;27;20474;-57
2022/11/15 11:26:11;;;;;;;5.07;2.70;;;;;;;;;;5079947;28;20025;-56
2022/11/15 11:29:06;;;;;;;6.45;2.95;;;;;;;;;;5086108;28;20028;-57
2022/11/15 11:31:53;;;;;;;6.40;3.10;;;;;;;;;;5075811;28;20032;-57
2022/11/15 11:34:25;;;;;;;4.00;2.70;;;;;;;;;;5082221;28;20054;-56
2022/11/15 11:36:53;;;;;;;7.00;2.72;;;;;;;;;;5091937;28;20023;-57
2022/11/15 11:39:29;;;;;;;5.28;3.03;;;;;;;;;;5115883;27;20021;-57
2022/11/15 11:42:13;;;;;;;6.63;3.25;;;;;;;;;;5084280;28;20082;-58
2022/11/15 11:44:45;;;;;;;5.20;2.95;;;;;;;;;;5090903;28;20034;-57
2022/11/15 11:47:11;;;;;;;7.10;2.83;;;;;;;;;;5079345;28;20103;-57
2022/11/15 11:49:42;;;;;;;7.93;2.70;;;;;;;;;;5088522;28;20420;-57
2022/11/15 11:52:11;;;;;;;4.35;2.33;;;;;;;;;;5074402;28;20394;-57
2022/11/15 11:54:36;;;;;;;2.97;2.28;;;;;;;;;;5085309;28;20384;-58
2022/11/15 11:57:02;;;;;;;6.00;2.80;;;;;;;;;;5075349;28;20078;-55
2022/11/15 11:59:28;;;;;;;6.30;2.70;;;;;;;;;;5090587;28;20024;-59
2022/11/15 12:01:53;;;;;;;4.88;2.53;;;;;;;;;;5081515;28;20028;-56
2022/11/15 12:04:29;;;;;;;5.47;3.03;;;;;;;;;;5115156;27;20020;-57
2022/11/15 12:06:54;;;;;;;7.20;2.65;;;;;;;;;;5092154;28;20492;-57
2022/11/15 12:09:32;;;;;;;4.60;2.45;;;;;;;;;;5082147;28;20051;-57
2022/11/15 12:12:12;;;;;;;3.20;2.28;;;;;;;;;;5083209;28;20434;-57
2022/11/15 12:14:40;;;;;;;3.97;2.38;;;;;;;;;;5090908;28;20051;-57
2022/11/15 12:17:08;;;;;;;6.43;2.30;;;;;;;;;;5080185;28;20314;-56
2022/11/15 12:19:34;;;;;;;4.45;2.58;;;;;;;;;;5075919;28;20063;-56
2022/11/15 12:22:04;;;;;;;4.05;2.50;;;;;;;;;;5116537;27;20028;-57
2022/11/15 12:24:48;;;;;;;5.88;2.30;;;;;;;;;;5122440;27;20028;-56
2022/11/15 12:27:17;;;;;;;5.57;2.28;;;;;;;;;;5085564;28;20039;-56
2022/11/15 12:29:44;;;;;;;5.88;2.72;;;;;;;;;;5116962;27;20062;-56
2022/11/15 12:32:19;;;;;;;5.78;2.60;;;;;;;;;;5085011;28;20130;-57
2022/11/15 12:34:45;;;;;;;4.57;2.28;;;;;;;;;;5080868;28;20497;-56
2022/11/15 12:37:29;;;;;;;7.85;2.90;;;;;;;;;;5114857;27;20024;-58
2022/11/15 12:40:03;;;;;;;3.55;2.10;;;;;;;;;;5083667;28;20031;-58
2022/11/15 12:42:28;;;;;;;4.72;2.38;;;;;;;;;;5076559;28;20020;-57
2022/11/15 12:44:53;;;;;;;5.55;2.60;;;;;;;;;;5085473;28;20065;-57
2022/11/15 12:47:23;;;;;;;7.35;2.65;;;;;;;;;;5075988;28;20025;-57
2022/11/15 12:49:48;;;;;;;3.65;2.25;;;;;;;;;;5085860;28;20062;-57
2022/11/15 12:52:14;;;;;;;8.95;2.45;;;;;;;;;;5092463;28;20024;-57
2022/11/15 12:54:42;;;;;;;4.82;2.70;;;;;;;;;;5073442;28;20077;-57
2022/11/15 12:57:07;;;;;;;8.82;2.47;;;;;;;;;;5074168;28;20028;-57
2022/11/15 12:59:52;;;;;;;4.53;2.10;;;;;;;;;;5083154;28;20062;-57
2022/11/15 13:02:18;;;;;;;5.85;2.47;;;;;;;;;;5087680;28;20027;-58
2022/11/15 13:04:43;;;;;;;5.40;2.60;;;;;;;;;;5078504;28;20025;-58
2022/11/15 13:07:08;;;;;;;5.45;2.58;;;;;;;;;;5120104;27;20054;-58
2022/11/15 13:09:33;;;;;;;4.45;2.33;;;;;;;;;;5073256;28;20059;-63
2022/11/15 13:12:01;;;;;;;5.32;2.25;;;;;;;;;;5092420;28;20363;-57
2022/11/15 13:14:45;;;;;;;5.20;1.92;;;;;;;;;;5086429;28;20033;-57
2022/11/15 13:17:19;;;;;;;4.20;2.35;;;;;;;;;;5070268;28;20111;-58
2022/11/15 13:19:49;;;;;;;5.38;2.35;;;;;;;;;;5071920;28;20123;-57
2022/11/15 13:25:01;;;;;;;4.93;2.15;;;;;;;;;;5079321;28;20032;-59
2022/11/15 13:27:26;;;;;;;7.82;2.40;;;;;;;;;;5074575;28;20031;-56
2022/11/15 13:29:52;;;;;;;6.05;2.15;;;;;;;;;;5079601;28;20354;-56
2022/11/15 13:32:17;;;;;;;6.95;2.17;;;;;;;;;;5109417;27;20028;-56
2022/11/15 13:34:43;;;;;;;3.38;2.20;;;;;;;;;;5081461;28;20023;-56
2022/11/15 13:37:38;;;;;;;8.30;2.17;;;;;;;;;;5076204;28;20032;-56
2022/11/15 13:40:30;;;;;;;3.92;2.22;;;;;;;;;;5075089;28;20032;-58
2022/11/15 13:42:58;;;;;;;2.65;1.70;;;;;;;;;;5073821;28;20482;-57
2022/11/15 13:45:23;;;;;;;2.80;1.80;;;;;;;;;;5074261;28;20244;-57
2022/11/15 13:47:53;;;;;;;3.40;2.05;;;;;;;;;;5077562;28;20096;-57
2022/11/15 13:50:19;;;;;;;2.45;1.45;;;;;;;;;;5082277;28;20370;-56
2022/11/15 13:52:45;;;;;;;3.72;2.25;;;;;;;;;;5078890;28;20081;-56
2022/11/15 13:55:10;;;;;;;3.83;1.77;;;;;;;;;;5084586;28;20080;-55
2022/11/15 13:57:51;;;;;;;3.47;2.00;;;;;;;;;;5086012;28;20032;-56
2022/11/15 14:00:32;;;;;;;4.72;2.10;;;;;;;;;;5082020;28;20035;-56
2022/11/15 14:02:57;;;;;;;4.07;2.22;;;;;;;;;;5079946;28;21211;-57
2022/11/15 14:05:23;;;;;;;3.45;2.00;;;;;;;;;;5055136;28;20140;-56
2022/11/15 14:07:58;;;;;;;3.38;2.10;;;;;;;;;;5082112;28;20043;-56
2022/11/15 14:10:44;;;;;;;3.35;2.10;;;;;;;;;;5082803;28;20386;-56
2022/11/15 14:13:28;;;;;;;4.05;2.17;;;;;;;;;;5079470;28;20028;-56
2022/11/15 14:15:53;;;;;;;4.10;2.28;;;;;;;;;;5068655;28;20107;-56
2022/11/15 14:18:37;;;;;;;3.83;2.08;;;;;;;;;;5085886;28;20122;-57
2022/11/15 14:21:06;;;;;;;3.67;2.13;;;;;;;;;;5069981;28;20028;-57
2022/11/15 14:23:31;;;;;;;4.88;2.03;;;;;;;;;;5074919;28;20350;-56
2022/11/15 14:25:57;;;;;;;5.30;2.13;;;;;;;;;;5081086;28;20086;-56
2022/11/15 14:28:22;;;;;;;3.17;2.00;;;;;;;;;;5073231;28;20020;-55
2022/11/15 14:30:49;;;;;;;3.30;1.90;;;;;;;;;;5080778;28;20031;-56
2022/11/15 14:33:21;;;;;;;6.20;3.30;;;;;;;;;;5075625;28;20121;-56
2022/11/15 14:35:46;;;;;;;3.60;2.05;;;;;;;;;;5077121;28;20091;-55
2022/11/15 14:38:11;;;;;;;3.08;1.88;;;;;;;;;;5083483;28;20042;-58
2022/11/15 14:40:36;;;;;;;6.05;2.47;;;;;;;;;;5079847;28;20042;-57
2022/11/15 14:43:02;;;;;;;3.15;1.83;;;;;;;;;;5083477;28;20027;-58
2022/11/15 14:45:27;;;;;;;3.65;1.88;;;;;;;;;;5086150;28;20390;-56
2022/11/15 14:47:52;;;;;;;2.22;1.60;;;;;;;;;;5077638;28;20399;-57
2022/11/15 14:50:20;;;;;;;3.03;1.60;;;;;;;;;;5073612;28;20036;-56
2022/11/15 14:52:45;;;;;;;3.25;1.70;;;;;;;;;;5092206;28;20435;-55
2022/11/15 14:55:20;;;;;;;4.30;2.30;;;;;;;;;;5085144;28;20119;-56
2022/11/15 14:57:46;;;;;;;4.72;2.95;;;;;;;;;;5079527;28;20016;-57